sensor_id;sensor_type;location;lat;lon;timestamp;temperature;humidity
32201;DHT22;18701;45.588;5.288;2023-09-30T00:00:57;22.20;99.90
32201;DHT22;18701;45.588;5.288;2023-09-30T00:03:23;22.30;99.90
32201;DHT22;18701;45.588;5.288;2023-09-30T00:05:49;22.20;99.90
32201;DHT22;18701;45.588;5.288;2023-09-30T00:08:15;22.30;99.90
32201;DHT22;18701;45.588;5.288;2023-09-30T00:10:40;22.10;99.90
32201;DHT22;18701;45.588;5.288;2023-09-30T00:13:06;22.10;99.90
32201;DHT22;18701;45.588;5.288;2023-09-30T00:15:34;22.10;99.90
32201;DHT22;18701;45.588;5.288;2023-09-30T00:18:01;22.20;99.90
32201;DHT22;18701;45.588;5.288;2023-09-30T00:20:28;22.10;99.90
32201;DHT22;18701;45.588;5.288;2023-09-30T00:22:53;21.90;99.90
32201;DHT22;18701;45.588;5.288;2023-09-30T00:25:19;22.00;99.90
32201;DHT22;18701;45.588;5.288;2023-09-30T00:27:46;21.80;99.90
32201;DHT22;18701;45.588;5.288;2023-09-30T00:30:12;21.80;99.90
32201;DHT22;18701;45.588;5.288;2023-09-30T00:32:38;21.80;99.90
32201;DHT22;18701;45.588;5.288;2023-09-30T00:35:05;22.00;99.90
32201;DHT22;18701;45.588;5.288;2023-09-30T00:37:39;21.90;99.90
32201;DHT22;18701;45.588;5.288;2023-09-30T00:40:06;22.00;99.90
32201;DHT22;18701;45.588;5.288;2023-09-30T00:42:33;22.00;99.90
32201;DHT22;18701;45.588;5.288;2023-09-30T00:44:58;21.90;99.90
32201;DHT22;18701;45.588;5.288;2023-09-30T00:47:26;21.80;99.90
32201;DHT22;18701;45.588;5.288;2023-09-30T00:49:52;21.80;99.90
32201;DHT22;18701;45.588;5.288;2023-09-30T00:52:19;22.00;99.90
32201;DHT22;18701;45.588;5.288;2023-09-30T00:54:46;22.00;99.90
32201;DHT22;18701;45.588;5.288;2023-09-30T00:57:13;21.80;99.90
32201;DHT22;18701;45.588;5.288;2023-09-30T00:59:40;21.40;99.90
32201;DHT22;18701;45.588;5.288;2023-09-30T01:02:06;21.30;99.90
32201;DHT22;18701;45.588;5.288;2023-09-30T01:04:31;21.30;99.90
32201;DHT22;18701;45.588;5.288;2023-09-30T01:06:57;21.30;99.90
32201;DHT22;18701;45.588;5.288;2023-09-30T01:09:23;21.40;99.90
32201;DHT22;18701;45.588;5.288;2023-09-30T01:11:49;21.20;99.90
32201;DHT22;18701;45.588;5.288;2023-09-30T01:14:28;21.30;99.90
32201;DHT22;18701;45.588;5.288;2023-09-30T01:16:55;21.20;99.90
32201;DHT22;18701;45.588;5.288;2023-09-30T01:19:20;21.20;99.90
32201;DHT22;18701;45.588;5.288;2023-09-30T01:21:46;21.10;99.90
32201;DHT22;18701;45.588;5.288;2023-09-30T01:24:16;21.30;99.90
32201;DHT22;18701;45.588;5.288;2023-09-30T01:26:42;21.40;99.90
32201;DHT22;18701;45.588;5.288;2023-09-30T01:29:08;21.50;99.90
32201;DHT22;18701;45.588;5.288;2023-09-30T01:31:37;21.50;99.90
32201;DHT22;18701;45.588;5.288;2023-09-30T01:34:04;21.40;99.90
32201;DHT22;18701;45.588;5.288;2023-09-30T01:36:29;21.40;99.90
32201;DHT22;18701;45.588;5.288;2023-09-30T01:38:55;21.50;99.90
32201;DHT22;18701;45.588;5.288;2023-09-30T01:41:21;21.40;99.90
32201;DHT22;18701;45.588;5.288;2023-09-30T01:43:46;21.40;99.90
32201;DHT22;18701;45.588;5.288;2023-09-30T01:46:15;21.20;99.90
32201;DHT22;18701;45.588;5.288;2023-09-30T01:48:41;21.00;99.90
32201;DHT22;18701;45.588;5.288;2023-09-30T01:51:06;20.80;99.90
32201;DHT22;18701;45.588;5.288;2023-09-30T01:53:32;20.90;99.90
32201;DHT22;18701;45.588;5.288;2023-09-30T01:55:58;20.90;99.90
32201;DHT22;18701;45.588;5.288;2023-09-30T01:58:24;20.90;99.90
32201;DHT22;18701;45.588;5.288;2023-09-30T02:00:53;20.90;99.90
32201;DHT22;18701;45.588;5.288;2023-09-30T02:03:19;21.10;99.90
32201;DHT22;18701;45.588;5.288;2023-09-30T02:05:45;21.10;99.90
32201;DHT22;18701;45.588;5.288;2023-09-30T02:08:10;21.20;99.90
32201;DHT22;18701;45.588;5.288;2023-09-30T02:10:36;21.10;99.90
32201;DHT22;18701;45.588;5.288;2023-09-30T02:13:02;21.10;99.90
32201;DHT22;18701;45.588;5.288;2023-09-30T02:15:31;21.10;99.90
32201;DHT22;18701;45.588;5.288;2023-09-30T02:17:57;21.00;99.90
32201;DHT22;18701;45.588;5.288;2023-09-30T02:20:23;21.00;99.90
32201;DHT22;18701;45.588;5.288;2023-09-30T02:22:51;20.90;99.90
32201;DHT22;18701;45.588;5.288;2023-09-30T02:25:18;20.80;99.90
32201;DHT22;18701;45.588;5.288;2023-09-30T02:27:44;20.60;99.90
32201;DHT22;18701;45.588;5.288;2023-09-30T02:30:11;20.70;99.90
32201;DHT22;18701;45.588;5.288;2023-09-30T02:32:39;20.70;99.90
32201;DHT22;18701;45.588;5.288;2023-09-30T02:35:09;20.60;99.90
32201;DHT22;18701;45.588;5.288;2023-09-30T02:37:38;20.30;99.90
32201;DHT22;18701;45.588;5.288;2023-09-30T02:40:07;20.40;99.90
32201;DHT22;18701;45.588;5.288;2023-09-30T02:42:38;20.50;99.90
32201;DHT22;18701;45.588;5.288;2023-09-30T02:45:06;20.40;99.90
32201;DHT22;18701;45.588;5.288;2023-09-30T02:47:34;20.30;99.90
32201;DHT22;18701;45.588;5.288;2023-09-30T02:50:00;20.20;99.90
32201;DHT22;18701;45.588;5.288;2023-09-30T02:52:26;20.30;99.90
32201;DHT22;18701;45.588;5.288;2023-09-30T02:54:54;20.20;99.90
32201;DHT22;18701;45.588;5.288;2023-09-30T02:57:19;20.20;99.90
32201;DHT22;18701;45.588;5.288;2023-09-30T02:59:47;20.00;99.90
32201;DHT22;18701;45.588;5.288;2023-09-30T03:02:13;20.00;99.90
32201;DHT22;18701;45.588;5.288;2023-09-30T03:04:38;20.10;99.90
32201;DHT22;18701;45.588;5.288;2023-09-30T03:07:05;20.00;99.90
32201;DHT22;18701;45.588;5.288;2023-09-30T03:09:30;20.00;99.90
32201;DHT22;18701;45.588;5.288;2023-09-30T03:11:57;19.90;99.90
32201;DHT22;18701;45.588;5.288;2023-09-30T03:14:24;19.90;99.90
32201;DHT22;18701;45.588;5.288;2023-09-30T03:16:50;19.80;99.90
32201;DHT22;18701;45.588;5.288;2023-09-30T03:19:16;19.70;99.90
32201;DHT22;18701;45.588;5.288;2023-09-30T03:21:42;19.70;99.90
32201;DHT22;18701;45.588;5.288;2023-09-30T03:24:08;19.70;99.90
32201;DHT22;18701;45.588;5.288;2023-09-30T03:26:34;19.60;99.90
32201;DHT22;18701;45.588;5.288;2023-09-30T03:29:01;19.70;99.90
32201;DHT22;18701;45.588;5.288;2023-09-30T03:31:27;19.80;99.90
32201;DHT22;18701;45.588;5.288;2023-09-30T03:33:52;19.50;99.90
32201;DHT22;18701;45.588;5.288;2023-09-30T03:36:21;19.50;99.90
32201;DHT22;18701;45.588;5.288;2023-09-30T03:38:50;19.50;99.90
32201;DHT22;18701;45.588;5.288;2023-09-30T03:41:16;19.50;99.90
32201;DHT22;18701;45.588;5.288;2023-09-30T03:43:41;19.30;99.90
32201;DHT22;18701;45.588;5.288;2023-09-30T03:46:08;19.30;99.90
32201;DHT22;18701;45.588;5.288;2023-09-30T03:48:33;19.20;99.90
32201;DHT22;18701;45.588;5.288;2023-09-30T03:51:14;19.40;99.90
32201;DHT22;18701;45.588;5.288;2023-09-30T03:53:41;19.30;99.90
32201;DHT22;18701;45.588;5.288;2023-09-30T03:56:07;19.10;99.90
32201;DHT22;18701;45.588;5.288;2023-09-30T03:58:32;19.00;99.90
32201;DHT22;18701;45.588;5.288;2023-09-30T04:00:59;19.20;99.90
32201;DHT22;18701;45.588;5.288;2023-09-30T04:03:26;19.20;99.90
32201;DHT22;18701;45.588;5.288;2023-09-30T04:05:53;19.10;99.90
32201;DHT22;18701;45.588;5.288;2023-09-30T04:08:18;18.90;99.90
32201;DHT22;18701;45.588;5.288;2023-09-30T04:10:44;19.10;99.90
32201;DHT22;18701;45.588;5.288;2023-09-30T04:13:10;19.00;99.90
32201;DHT22;18701;45.588;5.288;2023-09-30T04:15:37;19.10;99.90
32201;DHT22;18701;45.588;5.288;2023-09-30T04:18:03;19.00;99.90
32201;DHT22;18701;45.588;5.288;2023-09-30T04:20:31;18.90;99.90
32201;DHT22;18701;45.588;5.288;2023-09-30T04:22:57;18.90;99.90
32201;DHT22;18701;45.588;5.288;2023-09-30T04:25:23;18.60;99.90
32201;DHT22;18701;45.588;5.288;2023-09-30T04:27:50;18.80;99.90
32201;DHT22;18701;45.588;5.288;2023-09-30T04:30:16;18.90;99.90
32201;DHT22;18701;45.588;5.288;2023-09-30T04:32:43;18.80;99.90
32201;DHT22;18701;45.588;5.288;2023-09-30T04:35:11;18.80;99.90
32201;DHT22;18701;45.588;5.288;2023-09-30T04:37:37;18.80;99.90
32201;DHT22;18701;45.588;5.288;2023-09-30T04:40:08;18.80;99.90
32201;DHT22;18701;45.588;5.288;2023-09-30T04:42:43;18.70;99.90
32201;DHT22;18701;45.588;5.288;2023-09-30T04:45:12;18.70;99.90
32201;DHT22;18701;45.588;5.288;2023-09-30T04:47:39;18.70;99.90
32201;DHT22;18701;45.588;5.288;2023-09-30T04:50:06;18.60;99.90
32201;DHT22;18701;45.588;5.288;2023-09-30T04:52:34;18.60;99.90
32201;DHT22;18701;45.588;5.288;2023-09-30T04:55:00;18.50;99.90
32201;DHT22;18701;45.588;5.288;2023-09-30T04:57:26;18.60;99.90
32201;DHT22;18701;45.588;5.288;2023-09-30T04:59:52;18.40;99.90
32201;DHT22;18701;45.588;5.288;2023-09-30T05:02:17;18.30;99.90
32201;DHT22;18701;45.588;5.288;2023-09-30T05:04:43;18.30;99.90
32201;DHT22;18701;45.588;5.288;2023-09-30T05:07:09;18.40;99.90
32201;DHT22;18701;45.588;5.288;2023-09-30T05:09:34;18.30;99.90
32201;DHT22;18701;45.588;5.288;2023-09-30T05:12:00;18.20;99.90
32201;DHT22;18701;45.588;5.288;2023-09-30T05:14:25;18.30;99.90
32201;DHT22;18701;45.588;5.288;2023-09-30T05:16:54;18.20;99.90
32201;DHT22;18701;45.588;5.288;2023-09-30T05:19:20;18.20;99.90
32201;DHT22;18701;45.588;5.288;2023-09-30T05:21:46;18.10;99.90
32201;DHT22;18701;45.588;5.288;2023-09-30T05:24:12;18.10;99.90
32201;DHT22;18701;45.588;5.288;2023-09-30T05:26:38;18.10;99.90
32201;DHT22;18701;45.588;5.288;2023-09-30T05:29:04;18.00;99.90
32201;DHT22;18701;45.588;5.288;2023-09-30T05:31:30;17.90;99.90
32201;DHT22;18701;45.588;5.288;2023-09-30T05:33:56;18.00;99.90
32201;DHT22;18701;45.588;5.288;2023-09-30T05:36:22;18.00;99.90
32201;DHT22;18701;45.588;5.288;2023-09-30T05:38:47;17.90;99.90
32201;DHT22;18701;45.588;5.288;2023-09-30T05:41:16;17.70;99.90
32201;DHT22;18701;45.588;5.288;2023-09-30T05:43:42;17.90;99.90
32201;DHT22;18701;45.588;5.288;2023-09-30T05:46:09;17.90;99.90
32201;DHT22;18701;45.588;5.288;2023-09-30T05:48:35;17.90;99.90
32201;DHT22;18701;45.588;5.288;2023-09-30T05:51:02;17.90;99.90
32201;DHT22;18701;45.588;5.288;2023-09-30T05:53:30;17.80;99.90
32201;DHT22;18701;45.588;5.288;2023-09-30T05:55:58;18.00;99.90
32201;DHT22;18701;45.588;5.288;2023-09-30T05:58:25;17.70;99.90
32201;DHT22;18701;45.588;5.288;2023-09-30T06:00:53;17.90;99.90
32201;DHT22;18701;45.588;5.288;2023-09-30T06:03:19;17.90;99.90
32201;DHT22;18701;45.588;5.288;2023-09-30T06:05:47;18.00;99.90
32201;DHT22;18701;45.588;5.288;2023-09-30T06:08:15;17.80;99.90
32201;DHT22;18701;45.588;5.288;2023-09-30T06:10:44;17.60;99.90
32201;DHT22;18701;45.588;5.288;2023-09-30T06:13:10;17.80;99.90
32201;DHT22;18701;45.588;5.288;2023-09-30T06:15:40;18.00;99.90
32201;DHT22;18701;45.588;5.288;2023-09-30T06:18:07;17.90;99.90
32201;DHT22;18701;45.588;5.288;2023-09-30T06:20:33;18.00;99.90
32201;DHT22;18701;45.588;5.288;2023-09-30T06:22:59;17.90;99.90
32201;DHT22;18701;45.588;5.288;2023-09-30T06:25:28;18.00;99.90
32201;DHT22;18701;45.588;5.288;2023-09-30T06:27:55;18.00;99.90
32201;DHT22;18701;45.588;5.288;2023-09-30T06:30:21;18.10;99.90
32201;DHT22;18701;45.588;5.288;2023-09-30T06:32:47;18.00;99.90
32201;DHT22;18701;45.588;5.288;2023-09-30T06:35:13;18.20;99.90
32201;DHT22;18701;45.588;5.288;2023-09-30T06:37:39;18.30;99.90
32201;DHT22;18701;45.588;5.288;2023-09-30T06:40:06;18.20;99.90
32201;DHT22;18701;45.588;5.288;2023-09-30T06:42:37;18.20;99.90
32201;DHT22;18701;45.588;5.288;2023-09-30T06:45:03;18.30;99.90
32201;DHT22;18701;45.588;5.288;2023-09-30T06:47:35;18.40;99.90
32201;DHT22;18701;45.588;5.288;2023-09-30T06:50:09;18.40;99.90
32201;DHT22;18701;45.588;5.288;2023-09-30T06:52:36;18.40;99.90
32201;DHT22;18701;45.588;5.288;2023-09-30T06:55:02;18.50;99.90
32201;DHT22;18701;45.588;5.288;2023-09-30T06:57:36;18.50;99.90
32201;DHT22;18701;45.588;5.288;2023-09-30T07:00:09;18.70;99.90
32201;DHT22;18701;45.588;5.288;2023-09-30T07:02:37;18.70;99.90
32201;DHT22;18701;45.588;5.288;2023-09-30T07:05:10;18.70;99.90
32201;DHT22;18701;45.588;5.288;2023-09-30T07:07:36;18.50;99.90
32201;DHT22;18701;45.588;5.288;2023-09-30T07:10:05;18.50;99.90
32201;DHT22;18701;45.588;5.288;2023-09-30T07:12:31;18.70;99.90
32201;DHT22;18701;45.588;5.288;2023-09-30T07:14:57;18.70;99.90
32201;DHT22;18701;45.588;5.288;2023-09-30T07:17:23;18.70;99.90
32201;DHT22;18701;45.588;5.288;2023-09-30T07:19:48;18.80;99.90
32201;DHT22;18701;45.588;5.288;2023-09-30T07:22:14;18.90;99.90
32201;DHT22;18701;45.588;5.288;2023-09-30T07:24:40;19.00;99.90
32201;DHT22;18701;45.588;5.288;2023-09-30T07:27:06;19.00;99.90
32201;DHT22;18701;45.588;5.288;2023-09-30T07:29:32;19.10;99.90
32201;DHT22;18701;45.588;5.288;2023-09-30T07:31:58;19.10;99.90
32201;DHT22;18701;45.588;5.288;2023-09-30T07:34:24;19.10;99.90
32201;DHT22;18701;45.588;5.288;2023-09-30T07:36:49;19.10;99.90
32201;DHT22;18701;45.588;5.288;2023-09-30T07:39:15;19.20;99.90
32201;DHT22;18701;45.588;5.288;2023-09-30T07:41:42;19.30;99.90
32201;DHT22;18701;45.588;5.288;2023-09-30T07:44:08;19.30;99.90
32201;DHT22;18701;45.588;5.288;2023-09-30T07:46:35;19.40;99.90
32201;DHT22;18701;45.588;5.288;2023-09-30T07:49:01;19.20;99.90
32201;DHT22;18701;45.588;5.288;2023-09-30T07:51:28;19.40;99.90
32201;DHT22;18701;45.588;5.288;2023-09-30T07:53:55;19.40;99.90
32201;DHT22;18701;45.588;5.288;2023-09-30T07:56:22;19.60;99.90
32201;DHT22;18701;45.588;5.288;2023-09-30T07:58:48;19.60;99.90
32201;DHT22;18701;45.588;5.288;2023-09-30T08:01:14;19.80;99.90
32201;DHT22;18701;45.588;5.288;2023-09-30T08:03:40;19.70;99.90
32201;DHT22;18701;45.588;5.288;2023-09-30T08:06:07;19.80;99.90
32201;DHT22;18701;45.588;5.288;2023-09-30T08:08:36;19.90;99.90
32201;DHT22;18701;45.588;5.288;2023-09-30T08:11:02;19.80;99.90
32201;DHT22;18701;45.588;5.288;2023-09-30T08:13:27;19.70;99.90
32201;DHT22;18701;45.588;5.288;2023-09-30T08:15:54;19.80;99.90
32201;DHT22;18701;45.588;5.288;2023-09-30T08:18:21;20.00;99.90
32201;DHT22;18701;45.588;5.288;2023-09-30T08:20:47;20.20;99.90
32201;DHT22;18701;45.588;5.288;2023-09-30T08:23:12;20.40;99.90
32201;DHT22;18701;45.588;5.288;2023-09-30T08:25:38;20.30;99.90
32201;DHT22;18701;45.588;5.288;2023-09-30T08:28:05;20.10;99.90
32201;DHT22;18701;45.588;5.288;2023-09-30T08:30:30;19.90;99.90
32201;DHT22;18701;45.588;5.288;2023-09-30T08:32:58;20.20;99.90
32201;DHT22;18701;45.588;5.288;2023-09-30T08:35:24;20.30;99.90
32201;DHT22;18701;45.588;5.288;2023-09-30T08:37:50;20.40;99.90
32201;DHT22;18701;45.588;5.288;2023-09-30T08:40:20;20.50;99.90
32201;DHT22;18701;45.588;5.288;2023-09-30T08:42:51;20.10;99.90
32201;DHT22;18701;45.588;5.288;2023-09-30T08:45:18;20.40;99.90
32201;DHT22;18701;45.588;5.288;2023-09-30T08:47:44;20.20;99.90
32201;DHT22;18701;45.588;5.288;2023-09-30T08:50:12;20.50;99.90
32201;DHT22;18701;45.588;5.288;2023-09-30T08:52:41;20.20;99.90
32201;DHT22;18701;45.588;5.288;2023-09-30T08:55:08;20.30;99.90
32201;DHT22;18701;45.588;5.288;2023-09-30T08:57:37;20.40;99.90
32201;DHT22;18701;45.588;5.288;2023-09-30T09:00:05;20.60;99.90
32201;DHT22;18701;45.588;5.288;2023-09-30T09:02:34;20.10;99.90
32201;DHT22;18701;45.588;5.288;2023-09-30T09:05:01;20.70;99.90
32201;DHT22;18701;45.588;5.288;2023-09-30T09:07:26;20.60;99.90
32201;DHT22;18701;45.588;5.288;2023-09-30T09:10:09;21.00;99.90
32201;DHT22;18701;45.588;5.288;2023-09-30T09:12:37;20.60;99.90
32201;DHT22;18701;45.588;5.288;2023-09-30T09:15:05;20.80;99.90
32201;DHT22;18701;45.588;5.288;2023-09-30T09:17:40;20.70;99.90
32201;DHT22;18701;45.588;5.288;2023-09-30T09:20:07;20.90;99.90
32201;DHT22;18701;45.588;5.288;2023-09-30T09:22:39;20.60;99.90
32201;DHT22;18701;45.588;5.288;2023-09-30T09:25:05;21.00;99.90
32201;DHT22;18701;45.588;5.288;2023-09-30T09:27:33;21.00;99.90
32201;DHT22;18701;45.588;5.288;2023-09-30T09:30:25;21.40;99.90
32201;DHT22;18701;45.588;5.288;2023-09-30T09:33:04;21.60;99.90
32201;DHT22;18701;45.588;5.288;2023-09-30T09:35:31;21.70;99.90
32201;DHT22;18701;45.588;5.288;2023-09-30T09:40:27;21.80;99.90
32201;DHT22;18701;45.588;5.288;2023-09-30T09:42:54;22.00;99.90
32201;DHT22;18701;45.588;5.288;2023-09-30T09:45:22;22.10;99.90
32201;DHT22;18701;45.588;5.288;2023-09-30T09:47:48;21.90;99.90
32201;DHT22;18701;45.588;5.288;2023-09-30T09:50:14;22.10;99.90
32201;DHT22;18701;45.588;5.288;2023-09-30T09:52:41;22.30;99.90
32201;DHT22;18701;45.588;5.288;2023-09-30T09:55:10;22.10;99.90
32201;DHT22;18701;45.588;5.288;2023-09-30T09:57:36;22.40;99.90
32201;DHT22;18701;45.588;5.288;2023-09-30T10:00:04;22.50;99.90
32201;DHT22;18701;45.588;5.288;2023-09-30T10:02:36;22.40;99.90
32201;DHT22;18701;45.588;5.288;2023-09-30T10:05:02;22.80;99.90
32201;DHT22;18701;45.588;5.288;2023-09-30T10:07:33;23.00;99.90
32201;DHT22;18701;45.588;5.288;2023-09-30T10:10:01;23.10;99.90
32201;DHT22;18701;45.588;5.288;2023-09-30T10:12:32;23.10;99.90
32201;DHT22;18701;45.588;5.288;2023-09-30T10:15:01;22.90;99.90
32201;DHT22;18701;45.588;5.288;2023-09-30T10:18:06;22.90;99.90
32201;DHT22;18701;45.588;5.288;2023-09-30T10:20:39;23.30;99.90
32201;DHT22;18701;45.588;5.288;2023-09-30T10:23:28;23.30;99.90
32201;DHT22;18701;45.588;5.288;2023-09-30T10:28:46;23.50;99.90
32201;DHT22;18701;45.588;5.288;2023-09-30T10:31:17;23.50;99.90
32201;DHT22;18701;45.588;5.288;2023-09-30T10:38:57;24.10;99.90
32201;DHT22;18701;45.588;5.288;2023-09-30T10:46:51;24.10;99.90
32201;DHT22;18701;45.588;5.288;2023-09-30T10:51:56;24.20;99.90
32201;DHT22;18701;45.588;5.288;2023-09-30T10:54:22;24.50;99.90
32201;DHT22;18701;45.588;5.288;2023-09-30T10:56:51;24.60;99.90
32201;DHT22;18701;45.588;5.288;2023-09-30T10:59:23;24.60;99.90
32201;DHT22;18701;45.588;5.288;2023-09-30T11:01:50;24.70;99.90
32201;DHT22;18701;45.588;5.288;2023-09-30T11:04:16;25.00;99.90
32201;DHT22;18701;45.588;5.288;2023-09-30T11:06:43;24.90;99.90
32201;DHT22;18701;45.588;5.288;2023-09-30T11:09:08;25.40;99.90
32201;DHT22;18701;45.588;5.288;2023-09-30T11:11:41;25.20;99.90
32201;DHT22;18701;45.588;5.288;2023-09-30T11:16:47;25.10;99.90
32201;DHT22;18701;45.588;5.288;2023-09-30T11:19:14;25.10;99.90
32201;DHT22;18701;45.588;5.288;2023-09-30T11:21:44;24.90;99.90
32201;DHT22;18701;45.588;5.288;2023-09-30T11:24:10;25.20;99.90
32201;DHT22;18701;45.588;5.288;2023-09-30T11:26:37;25.30;99.90
32201;DHT22;18701;45.588;5.288;2023-09-30T11:29:06;25.60;99.90
32201;DHT22;18701;45.588;5.288;2023-09-30T11:31:32;25.50;99.90
32201;DHT22;18701;45.588;5.288;2023-09-30T11:34:00;25.60;99.90
32201;DHT22;18701;45.588;5.288;2023-09-30T11:36:30;25.00;99.90
32201;DHT22;18701;45.588;5.288;2023-09-30T11:38:57;25.70;99.90
32201;DHT22;18701;45.588;5.288;2023-09-30T11:41:31;26.20;99.40
32201;DHT22;18701;45.588;5.288;2023-09-30T11:43:59;25.30;99.50
32201;DHT22;18701;45.588;5.288;2023-09-30T11:46:26;26.20;99.90
32201;DHT22;18701;45.588;5.288;2023-09-30T11:49:02;26.50;99.70
32201;DHT22;18701;45.588;5.288;2023-09-30T11:51:28;26.90;98.50
32201;DHT22;18701;45.588;5.288;2023-09-30T11:53:55;26.70;99.00
32201;DHT22;18701;45.588;5.288;2023-09-30T11:56:23;27.60;98.30
32201;DHT22;18701;45.588;5.288;2023-09-30T11:58:53;27.60;98.00
32201;DHT22;18701;45.588;5.288;2023-09-30T12:01:19;27.30;96.40
32201;DHT22;18701;45.588;5.288;2023-09-30T12:03:50;27.10;97.00
32201;DHT22;18701;45.588;5.288;2023-09-30T12:06:17;28.60;97.00
32201;DHT22;18701;45.588;5.288;2023-09-30T12:08:43;28.20;95.50
32201;DHT22;18701;45.588;5.288;2023-09-30T12:11:09;27.10;96.10
32201;DHT22;18701;45.588;5.288;2023-09-30T12:13:38;26.90;95.40
32201;DHT22;18701;45.588;5.288;2023-09-30T12:16:04;27.10;95.70
32201;DHT22;18701;45.588;5.288;2023-09-30T12:18:30;27.00;96.00
32201;DHT22;18701;45.588;5.288;2023-09-30T12:20:56;27.60;95.10
32201;DHT22;18701;45.588;5.288;2023-09-30T12:23:21;27.70;94.40
32201;DHT22;18701;45.588;5.288;2023-09-30T12:25:48;27.60;94.40
32201;DHT22;18701;45.588;5.288;2023-09-30T12:28:13;28.30;94.50
32201;DHT22;18701;45.588;5.288;2023-09-30T12:30:40;27.70;95.00
32201;DHT22;18701;45.588;5.288;2023-09-30T12:33:07;27.60;94.30
32201;DHT22;18701;45.588;5.288;2023-09-30T12:35:33;27.80;94.80
32201;DHT22;18701;45.588;5.288;2023-09-30T12:37:59;27.30;95.10
32201;DHT22;18701;45.588;5.288;2023-09-30T12:40:25;28.40;95.10
32201;DHT22;18701;45.588;5.288;2023-09-30T12:42:51;28.60;93.80
32201;DHT22;18701;45.588;5.288;2023-09-30T12:45:16;28.00;94.00
32201;DHT22;18701;45.588;5.288;2023-09-30T12:47:44;27.90;93.90
32201;DHT22;18701;45.588;5.288;2023-09-30T12:50:10;27.90;94.00
32201;DHT22;18701;45.588;5.288;2023-09-30T12:52:36;26.90;94.20
32201;DHT22;18701;45.588;5.288;2023-09-30T12:55:02;27.60;94.40
32201;DHT22;18701;45.588;5.288;2023-09-30T12:57:27;28.00;94.30
32201;DHT22;18701;45.588;5.288;2023-09-30T12:59:53;27.80;94.10
32201;DHT22;18701;45.588;5.288;2023-09-30T13:02:19;27.60;94.40
32201;DHT22;18701;45.588;5.288;2023-09-30T13:04:46;27.70;93.90
32201;DHT22;18701;45.588;5.288;2023-09-30T13:07:12;28.30;92.90
32201;DHT22;18701;45.588;5.288;2023-09-30T13:09:40;28.50;93.10
32201;DHT22;18701;45.588;5.288;2023-09-30T13:12:07;27.70;93.70
32201;DHT22;18701;45.588;5.288;2023-09-30T13:14:33;27.60;94.00
32201;DHT22;18701;45.588;5.288;2023-09-30T13:16:58;27.40;93.70
32201;DHT22;18701;45.588;5.288;2023-09-30T13:19:25;27.30;93.70
32201;DHT22;18701;45.588;5.288;2023-09-30T13:21:50;28.20;93.40
32201;DHT22;18701;45.588;5.288;2023-09-30T13:24:18;28.70;93.30
32201;DHT22;18701;45.588;5.288;2023-09-30T13:26:44;28.50;93.30
32201;DHT22;18701;45.588;5.288;2023-09-30T13:29:10;29.30;92.70
32201;DHT22;18701;45.588;5.288;2023-09-30T13:31:37;29.40;92.00
32201;DHT22;18701;45.588;5.288;2023-09-30T13:34:04;29.30;92.00
32201;DHT22;18701;45.588;5.288;2023-09-30T13:36:29;28.50;91.90
32201;DHT22;18701;45.588;5.288;2023-09-30T13:38:55;28.80;92.20
32201;DHT22;18701;45.588;5.288;2023-09-30T13:41:21;29.60;91.80
32201;DHT22;18701;45.588;5.288;2023-09-30T13:43:47;29.70;91.90
32201;DHT22;18701;45.588;5.288;2023-09-30T13:46:12;29.30;91.80
32201;DHT22;18701;45.588;5.288;2023-09-30T13:48:38;29.10;90.70
32201;DHT22;18701;45.588;5.288;2023-09-30T13:51:10;28.80;90.90
32201;DHT22;18701;45.588;5.288;2023-09-30T13:53:36;28.90;91.30
32201;DHT22;18701;45.588;5.288;2023-09-30T13:56:02;27.90;91.80
32201;DHT22;18701;45.588;5.288;2023-09-30T13:58:31;29.20;91.70
32201;DHT22;18701;45.588;5.288;2023-09-30T14:00:56;28.70;91.30
32201;DHT22;18701;45.588;5.288;2023-09-30T14:03:22;28.60;91.60
32201;DHT22;18701;45.588;5.288;2023-09-30T14:05:51;28.30;91.40
32201;DHT22;18701;45.588;5.288;2023-09-30T14:08:18;29.30;91.60
32201;DHT22;18701;45.588;5.288;2023-09-30T14:10:44;29.40;90.70
32201;DHT22;18701;45.588;5.288;2023-09-30T14:13:10;29.60;90.90
32201;DHT22;18701;45.588;5.288;2023-09-30T14:15:36;30.40;90.80
32201;DHT22;18701;45.588;5.288;2023-09-30T14:18:02;28.90;90.20
32201;DHT22;18701;45.588;5.288;2023-09-30T14:20:28;28.50;90.30
32201;DHT22;18701;45.588;5.288;2023-09-30T14:22:53;28.70;90.50
32201;DHT22;18701;45.588;5.288;2023-09-30T14:25:21;29.30;90.10
32201;DHT22;18701;45.588;5.288;2023-09-30T14:27:48;28.40;90.60
32201;DHT22;18701;45.588;5.288;2023-09-30T14:30:13;28.90;91.00
32201;DHT22;18701;45.588;5.288;2023-09-30T14:32:40;29.30;90.50
32201;DHT22;18701;45.588;5.288;2023-09-30T14:35:06;30.10;90.30
32201;DHT22;18701;45.588;5.288;2023-09-30T14:37:32;29.50;89.60
32201;DHT22;18701;45.588;5.288;2023-09-30T14:39:58;30.50;90.00
32201;DHT22;18701;45.588;5.288;2023-09-30T14:42:23;30.90;89.60
32201;DHT22;18701;45.588;5.288;2023-09-30T14:44:49;32.70;88.70
32201;DHT22;18701;45.588;5.288;2023-09-30T14:47:15;32.00;87.10
32201;DHT22;18701;45.588;5.288;2023-09-30T14:49:41;32.80;86.50
32201;DHT22;18701;45.588;5.288;2023-09-30T14:52:07;32.10;86.30
32201;DHT22;18701;45.588;5.288;2023-09-30T14:54:35;32.00;86.60
32201;DHT22;18701;45.588;5.288;2023-09-30T14:57:00;32.80;85.50
32201;DHT22;18701;45.588;5.288;2023-09-30T14:59:27;33.30;83.50
32201;DHT22;18701;45.588;5.288;2023-09-30T15:01:52;35.10;84.30
32201;DHT22;18701;45.588;5.288;2023-09-30T15:04:18;35.10;81.70
32201;DHT22;18701;45.588;5.288;2023-09-30T15:06:44;33.60;79.20
32201;DHT22;18701;45.588;5.288;2023-09-30T15:09:11;33.00;80.50
32201;DHT22;18701;45.588;5.288;2023-09-30T15:11:38;31.60;81.00
32201;DHT22;18701;45.588;5.288;2023-09-30T15:14:03;33.80;80.30
32201;DHT22;18701;45.588;5.288;2023-09-30T15:16:32;33.90;79.50
32201;DHT22;18701;45.588;5.288;2023-09-30T15:18:58;34.40;77.60
32201;DHT22;18701;45.588;5.288;2023-09-30T15:21:23;35.60;76.20
32201;DHT22;18701;45.588;5.288;2023-09-30T15:23:52;34.80;76.00
32201;DHT22;18701;45.588;5.288;2023-09-30T15:26:17;34.90;76.50
32201;DHT22;18701;45.588;5.288;2023-09-30T15:28:43;33.80;76.10
32201;DHT22;18701;45.588;5.288;2023-09-30T15:31:13;32.80;77.00
32201;DHT22;18701;45.588;5.288;2023-09-30T15:33:38;32.10;80.00
32201;DHT22;18701;45.588;5.288;2023-09-30T15:36:15;31.70;79.20
32201;DHT22;18701;45.588;5.288;2023-09-30T15:38:44;30.70;79.60
32201;DHT22;18701;45.588;5.288;2023-09-30T15:41:12;29.50;80.90
32201;DHT22;18701;45.588;5.288;2023-09-30T15:43:38;29.40;82.00
32201;DHT22;18701;45.588;5.288;2023-09-30T15:46:04;29.80;80.90
32201;DHT22;18701;45.588;5.288;2023-09-30T15:48:30;30.20;80.90
32201;DHT22;18701;45.588;5.288;2023-09-30T15:50:56;32.10;79.70